Svetlogorsk, Russia
Current Conditions -  °F | °C
As of 11:30 PM on Wednesday 22 Oct 2014 (Local Time) from UMKK Reporting Station
Overcast Overcast  
Wind Chill: 25°   Ceiling: 1200
Heat Index: 36°   Visibility: 6mi
Dew Point: 30°   Wind: 18mph
Humidity: 81%   Direction: 100°E
Pressure: 30.03"   Gusts: NA
Location:  54.94°N, 20.15°E
Report Text: UMKK 222130Z 10008MPS 050V120 9999 OVC012 02/M01 Q1017 R06/70D NOSIG RMK QFE762/1016
Loading
Personal Weather Stations






























Interactive Weather Map
Tropical Storm Tracking
New forecast layout! Learn more

10-Day Weather Forecast

Advertisements
Track Severe Weather on mobile